sensor_id;sensor_type;location;lat;lon;timestamp;P1;durP1;ratioP1;P2;durP2;ratioP2
47483;SDS011;54076;50.322;18.650;2024-03-02T00:03:56;69.60;;;29.00;;
47483;SDS011;54076;50.322;18.650;2024-03-02T00:08:58;73.20;;;29.80;;
47483;SDS011;54076;50.322;18.650;2024-03-02T00:13:59;72.90;;;30.00;;
47483;SDS011;54076;50.322;18.650;2024-03-02T00:19:05;74.30;;;30.60;;
47483;SDS011;54076;50.322;18.650;2024-03-02T00:24:31;66.90;;;29.30;;
47483;SDS011;54076;50.322;18.650;2024-03-02T00:29:34;70.80;;;28.20;;
47483;SDS011;54076;50.322;18.650;2024-03-02T00:34:35;72.70;;;30.60;;
47483;SDS011;54076;50.322;18.650;2024-03-02T00:39:36;74.20;;;29.50;;
47483;SDS011;54076;50.322;18.650;2024-03-02T00:44:37;67.40;;;29.20;;
47483;SDS011;54076;50.322;18.650;2024-03-02T00:49:38;70.40;;;29.50;;
47483;SDS011;54076;50.322;18.650;2024-03-02T00:54:39;73.20;;;30.60;;
47483;SDS011;54076;50.322;18.650;2024-03-02T00:59:40;69.10;;;29.30;;
47483;SDS011;54076;50.322;18.650;2024-03-02T01:04:41;75.20;;;30.40;;
47483;SDS011;54076;50.322;18.650;2024-03-02T01:09:42;72.90;;;29.20;;
47483;SDS011;54076;50.322;18.650;2024-03-02T01:14:42;74.80;;;29.40;;
47483;SDS011;54076;50.322;18.650;2024-03-02T01:19:43;67.70;;;29.20;;
47483;SDS011;54076;50.322;18.650;2024-03-02T01:24:44;72.00;;;29.30;;
47483;SDS011;54076;50.322;18.650;2024-03-02T01:29:45;77.30;;;30.00;;
47483;SDS011;54076;50.322;18.650;2024-03-02T01:34:46;69.60;;;29.80;;
47483;SDS011;54076;50.322;18.650;2024-03-02T01:39:47;65.40;;;26.60;;
47483;SDS011;54076;50.322;18.650;2024-03-02T01:44:48;70.30;;;28.80;;
47483;SDS011;54076;50.322;18.650;2024-03-02T01:49:49;76.00;;;28.30;;
47483;SDS011;54076;50.322;18.650;2024-03-02T01:54:51;86.50;;;32.90;;
47483;SDS011;54076;50.322;18.650;2024-03-02T01:59:52;96.70;;;36.40;;
47483;SDS011;54076;50.322;18.650;2024-03-02T02:04:53;91.10;;;36.60;;
47483;SDS011;54076;50.322;18.650;2024-03-02T02:09:54;94.10;;;34.60;;
47483;SDS011;54076;50.322;18.650;2024-03-02T02:14:55;82.40;;;32.20;;
47483;SDS011;54076;50.322;18.650;2024-03-02T02:19:56;77.00;;;30.70;;
47483;SDS011;54076;50.322;18.650;2024-03-02T02:24:57;69.80;;;29.40;;
47483;SDS011;54076;50.322;18.650;2024-03-02T02:29:58;66.10;;;27.00;;
47483;SDS011;54076;50.322;18.650;2024-03-02T02:34:58;66.10;;;27.30;;
47483;SDS011;54076;50.322;18.650;2024-03-02T02:40:00;65.30;;;26.90;;
47483;SDS011;54076;50.322;18.650;2024-03-02T02:45:00;60.70;;;26.10;;
47483;SDS011;54076;50.322;18.650;2024-03-02T02:50:03;62.90;;;26.00;;
47483;SDS011;54076;50.322;18.650;2024-03-02T02:55:04;58.00;;;24.50;;
47483;SDS011;54076;50.322;18.650;2024-03-02T03:00:11;54.70;;;22.90;;
47483;SDS011;54076;50.322;18.650;2024-03-02T03:05:15;54.10;;;23.20;;
47483;SDS011;54076;50.322;18.650;2024-03-02T03:10:16;61.10;;;24.10;;
47483;SDS011;54076;50.322;18.650;2024-03-02T03:15:17;55.90;;;23.60;;
47483;SDS011;54076;50.322;18.650;2024-03-02T03:20:18;54.00;;;23.80;;
47483;SDS011;54076;50.322;18.650;2024-03-02T03:25:22;54.30;;;22.80;;
47483;SDS011;54076;50.322;18.650;2024-03-02T03:30:23;51.60;;;22.60;;
47483;SDS011;54076;50.322;18.650;2024-03-02T03:35:24;52.00;;;22.10;;
47483;SDS011;54076;50.322;18.650;2024-03-02T03:40:25;52.30;;;23.70;;
47483;SDS011;54076;50.322;18.650;2024-03-02T03:45:26;47.70;;;21.90;;
47483;SDS011;54076;50.322;18.650;2024-03-02T03:50:27;52.40;;;22.40;;
47483;SDS011;54076;50.322;18.650;2024-03-02T03:55:28;45.70;;;21.40;;
47483;SDS011;54076;50.322;18.650;2024-03-02T04:00:29;48.30;;;21.80;;
47483;SDS011;54076;50.322;18.650;2024-03-02T04:05:30;51.50;;;22.30;;
47483;SDS011;54076;50.322;18.650;2024-03-02T04:10:31;49.10;;;20.40;;
47483;SDS011;54076;50.322;18.650;2024-03-02T04:15:31;48.50;;;20.70;;
47483;SDS011;54076;50.322;18.650;2024-03-02T04:20:32;47.60;;;21.20;;
47483;SDS011;54076;50.322;18.650;2024-03-02T04:25:33;48.40;;;21.20;;
47483;SDS011;54076;50.322;18.650;2024-03-02T04:30:34;50.70;;;20.20;;
47483;SDS011;54076;50.322;18.650;2024-03-02T04:35:36;40.10;;;19.60;;
47483;SDS011;54076;50.322;18.650;2024-03-02T04:40:37;47.20;;;20.50;;
47483;SDS011;54076;50.322;18.650;2024-03-02T04:45:38;44.30;;;19.50;;
47483;SDS011;54076;50.322;18.650;2024-03-02T04:50:39;44.50;;;19.80;;
47483;SDS011;54076;50.322;18.650;2024-03-02T04:55:40;45.40;;;20.60;;
47483;SDS011;54076;50.322;18.650;2024-03-02T05:00:41;45.90;;;19.50;;
47483;SDS011;54076;50.322;18.650;2024-03-02T05:05:43;44.10;;;19.70;;
47483;SDS011;54076;50.322;18.650;2024-03-02T05:10:45;38.80;;;19.20;;
47483;SDS011;54076;50.322;18.650;2024-03-02T05:15:46;45.60;;;19.60;;
47483;SDS011;54076;50.322;18.650;2024-03-02T05:20:47;40.00;;;18.80;;
47483;SDS011;54076;50.322;18.650;2024-03-02T05:25:48;42.50;;;19.50;;
47483;SDS011;54076;50.322;18.650;2024-03-02T05:30:49;38.30;;;18.80;;
47483;SDS011;54076;50.322;18.650;2024-03-02T05:35:50;44.20;;;18.90;;
47483;SDS011;54076;50.322;18.650;2024-03-02T05:40:51;43.40;;;19.60;;
47483;SDS011;54076;50.322;18.650;2024-03-02T05:45:51;42.20;;;19.90;;
47483;SDS011;54076;50.322;18.650;2024-03-02T05:50:52;38.50;;;18.90;;
47483;SDS011;54076;50.322;18.650;2024-03-02T05:55:53;42.70;;;20.50;;
47483;SDS011;54076;50.322;18.650;2024-03-02T06:00:56;46.80;;;20.90;;
47483;SDS011;54076;50.322;18.650;2024-03-02T06:05:57;48.50;;;20.90;;
47483;SDS011;54076;50.322;18.650;2024-03-02T06:10:59;43.30;;;19.80;;
47483;SDS011;54076;50.322;18.650;2024-03-02T06:15:59;42.50;;;20.10;;
47483;SDS011;54076;50.322;18.650;2024-03-02T06:21:00;39.70;;;19.00;;
47483;SDS011;54076;50.322;18.650;2024-03-02T06:26:04;39.50;;;19.00;;
47483;SDS011;54076;50.322;18.650;2024-03-02T06:31:05;43.40;;;18.90;;
47483;SDS011;54076;50.322;18.650;2024-03-02T06:36:06;39.50;;;18.00;;
47483;SDS011;54076;50.322;18.650;2024-03-02T06:41:10;42.10;;;18.30;;
47483;SDS011;54076;50.322;18.650;2024-03-02T06:46:11;41.60;;;18.70;;
47483;SDS011;54076;50.322;18.650;2024-03-02T06:51:15;40.60;;;19.10;;
47483;SDS011;54076;50.322;18.650;2024-03-02T06:56:16;41.10;;;18.80;;
47483;SDS011;54076;50.322;18.650;2024-03-02T07:01:17;37.60;;;17.90;;
47483;SDS011;54076;50.322;18.650;2024-03-02T07:06:18;43.00;;;20.00;;
47483;SDS011;54076;50.322;18.650;2024-03-02T07:11:18;41.10;;;18.10;;
47483;SDS011;54076;50.322;18.650;2024-03-02T07:16:19;40.00;;;19.90;;
47483;SDS011;54076;50.322;18.650;2024-03-02T07:21:30;43.70;;;19.60;;
47483;SDS011;54076;50.322;18.650;2024-03-02T07:26:32;47.80;;;20.00;;
47483;SDS011;54076;50.322;18.650;2024-03-02T07:31:33;43.30;;;19.70;;
47483;SDS011;54076;50.322;18.650;2024-03-02T07:36:35;40.70;;;19.60;;
47483;SDS011;54076;50.322;18.650;2024-03-02T07:41:37;46.20;;;20.40;;
47483;SDS011;54076;50.322;18.650;2024-03-02T07:46:38;43.20;;;20.60;;
47483;SDS011;54076;50.322;18.650;2024-03-02T07:51:39;46.10;;;20.80;;
47483;SDS011;54076;50.322;18.650;2024-03-02T07:56:40;48.70;;;21.30;;
47483;SDS011;54076;50.322;18.650;2024-03-02T08:01:41;41.10;;;20.00;;
47483;SDS011;54076;50.322;18.650;2024-03-02T08:06:42;43.70;;;20.30;;
47483;SDS011;54076;50.322;18.650;2024-03-02T08:11:43;43.20;;;21.20;;
47483;SDS011;54076;50.322;18.650;2024-03-02T08:16:44;44.60;;;21.40;;
47483;SDS011;54076;50.322;18.650;2024-03-02T08:21:46;48.40;;;22.30;;
47483;SDS011;54076;50.322;18.650;2024-03-02T08:26:46;49.10;;;22.00;;
47483;SDS011;54076;50.322;18.650;2024-03-02T08:31:47;48.20;;;21.70;;
47483;SDS011;54076;50.322;18.650;2024-03-02T08:36:50;48.60;;;21.40;;
47483;SDS011;54076;50.322;18.650;2024-03-02T08:41:50;45.30;;;21.10;;
47483;SDS011;54076;50.322;18.650;2024-03-02T08:46:52;50.00;;;22.40;;
47483;SDS011;54076;50.322;18.650;2024-03-02T08:51:52;48.70;;;22.00;;
47483;SDS011;54076;50.322;18.650;2024-03-02T08:56:56;47.00;;;21.70;;
47483;SDS011;54076;50.322;18.650;2024-03-02T09:01:57;46.50;;;22.00;;
47483;SDS011;54076;50.322;18.650;2024-03-02T09:06:58;41.60;;;21.30;;
47483;SDS011;54076;50.322;18.650;2024-03-02T09:11:59;43.70;;;21.30;;
47483;SDS011;54076;50.322;18.650;2024-03-02T09:17:00;48.20;;;22.00;;
47483;SDS011;54076;50.322;18.650;2024-03-02T09:22:01;43.60;;;21.30;;
47483;SDS011;54076;50.322;18.650;2024-03-02T09:27:04;43.90;;;21.50;;
47483;SDS011;54076;50.322;18.650;2024-03-02T09:32:05;47.90;;;21.50;;
47483;SDS011;54076;50.322;18.650;2024-03-02T09:37:07;45.90;;;21.60;;
47483;SDS011;54076;50.322;18.650;2024-03-02T09:42:08;46.30;;;22.20;;
47483;SDS011;54076;50.322;18.650;2024-03-02T09:47:09;46.10;;;22.00;;
47483;SDS011;54076;50.322;18.650;2024-03-02T09:52:10;45.00;;;21.60;;
47483;SDS011;54076;50.322;18.650;2024-03-02T09:57:11;43.20;;;20.20;;
47483;SDS011;54076;50.322;18.650;2024-03-02T10:02:12;38.10;;;18.60;;
47483;SDS011;54076;50.322;18.650;2024-03-02T10:07:15;39.30;;;19.70;;
47483;SDS011;54076;50.322;18.650;2024-03-02T10:12:17;40.90;;;19.70;;
47483;SDS011;54076;50.322;18.650;2024-03-02T10:17:19;43.20;;;20.90;;
47483;SDS011;54076;50.322;18.650;2024-03-02T10:22:20;47.80;;;20.20;;
47483;SDS011;54076;50.322;18.650;2024-03-02T10:27:26;41.60;;;19.60;;
47483;SDS011;54076;50.322;18.650;2024-03-02T10:32:28;44.90;;;20.10;;
47483;SDS011;54076;50.322;18.650;2024-03-02T10:37:29;43.10;;;20.60;;
47483;SDS011;54076;50.322;18.650;2024-03-02T10:42:30;46.90;;;21.40;;
47483;SDS011;54076;50.322;18.650;2024-03-02T10:47:32;51.00;;;21.20;;
47483;SDS011;54076;50.322;18.650;2024-03-02T10:52:37;41.30;;;19.10;;
47483;SDS011;54076;50.322;18.650;2024-03-02T10:57:50;39.30;;;19.10;;
47483;SDS011;54076;50.322;18.650;2024-03-02T11:02:56;39.80;;;18.50;;
47483;SDS011;54076;50.322;18.650;2024-03-02T11:08:13;35.40;;;18.20;;
47483;SDS011;54076;50.322;18.650;2024-03-02T11:13:22;35.40;;;17.40;;
47483;SDS011;54076;50.322;18.650;2024-03-02T11:18:28;38.20;;;17.50;;
47483;SDS011;54076;50.322;18.650;2024-03-02T11:23:33;39.00;;;16.90;;
47483;SDS011;54076;50.322;18.650;2024-03-02T11:28:35;32.80;;;16.10;;
47483;SDS011;54076;50.322;18.650;2024-03-02T11:33:37;32.90;;;15.40;;
47483;SDS011;54076;50.322;18.650;2024-03-02T11:38:38;34.00;;;16.00;;
47483;SDS011;54076;50.322;18.650;2024-03-02T11:43:39;36.10;;;15.30;;
47483;SDS011;54076;50.322;18.650;2024-03-02T11:48:41;34.50;;;16.70;;
47483;SDS011;54076;50.322;18.650;2024-03-02T11:53:42;37.70;;;17.80;;
47483;SDS011;54076;50.322;18.650;2024-03-02T11:58:43;34.80;;;16.70;;
47483;SDS011;54076;50.322;18.650;2024-03-02T12:03:45;34.40;;;17.50;;
47483;SDS011;54076;50.322;18.650;2024-03-02T12:08:46;37.40;;;19.00;;
47483;SDS011;54076;50.322;18.650;2024-03-02T12:13:53;42.20;;;18.70;;
47483;SDS011;54076;50.322;18.650;2024-03-02T12:18:57;41.10;;;17.60;;
47483;SDS011;54076;50.322;18.650;2024-03-02T12:23:58;40.80;;;21.10;;
47483;SDS011;54076;50.322;18.650;2024-03-02T12:28:59;41.10;;;19.90;;
47483;SDS011;54076;50.322;18.650;2024-03-02T12:34:01;34.50;;;17.80;;
47483;SDS011;54076;50.322;18.650;2024-03-02T12:39:04;39.40;;;19.40;;
47483;SDS011;54076;50.322;18.650;2024-03-02T12:44:05;43.40;;;19.30;;
47483;SDS011;54076;50.322;18.650;2024-03-02T12:49:10;36.70;;;18.20;;
47483;SDS011;54076;50.322;18.650;2024-03-02T12:54:12;36.90;;;20.20;;
47483;SDS011;54076;50.322;18.650;2024-03-02T12:59:18;37.40;;;19.00;;
47483;SDS011;54076;50.322;18.650;2024-03-02T13:04:23;31.00;;;15.40;;
47483;SDS011;54076;50.322;18.650;2024-03-02T13:09:25;17.90;;;7.70;;
47483;SDS011;54076;50.322;18.650;2024-03-02T13:14:27;16.90;;;7.30;;
47483;SDS011;54076;50.322;18.650;2024-03-02T13:19:28;19.60;;;6.90;;
47483;SDS011;54076;50.322;18.650;2024-03-02T13:24:31;14.30;;;7.20;;
47483;SDS011;54076;50.322;18.650;2024-03-02T13:29:33;15.90;;;8.10;;
47483;SDS011;54076;50.322;18.650;2024-03-02T13:34:34;18.70;;;9.20;;
47483;SDS011;54076;50.322;18.650;2024-03-02T13:39:35;19.60;;;9.50;;
47483;SDS011;54076;50.322;18.650;2024-03-02T13:44:45;20.80;;;9.50;;
47483;SDS011;54076;50.322;18.650;2024-03-02T13:49:48;20.00;;;10.50;;
47483;SDS011;54076;50.322;18.650;2024-03-02T13:54:49;25.40;;;12.30;;
47483;SDS011;54076;50.322;18.650;2024-03-02T13:59:52;24.50;;;13.00;;
47483;SDS011;54076;50.322;18.650;2024-03-02T14:04:53;24.00;;;12.20;;
47483;SDS011;54076;50.322;18.650;2024-03-02T14:09:54;22.80;;;12.10;;
47483;SDS011;54076;50.322;18.650;2024-03-02T14:14:56;21.80;;;10.40;;
47483;SDS011;54076;50.322;18.650;2024-03-02T14:19:58;24.60;;;11.70;;
47483;SDS011;54076;50.322;18.650;2024-03-02T14:24:59;22.40;;;11.20;;
47483;SDS011;54076;50.322;18.650;2024-03-02T14:30:00;23.20;;;11.00;;
47483;SDS011;54076;50.322;18.650;2024-03-02T14:35:01;23.70;;;10.10;;
47483;SDS011;54076;50.322;18.650;2024-03-02T14:40:02;21.10;;;10.60;;
47483;SDS011;54076;50.322;18.650;2024-03-02T14:45:07;21.70;;;10.30;;
47483;SDS011;54076;50.322;18.650;2024-03-02T14:50:08;22.00;;;10.40;;
47483;SDS011;54076;50.322;18.650;2024-03-02T14:55:10;20.60;;;9.90;;
47483;SDS011;54076;50.322;18.650;2024-03-02T15:00:11;20.20;;;10.10;;
47483;SDS011;54076;50.322;18.650;2024-03-02T15:05:12;19.00;;;9.40;;
47483;SDS011;54076;50.322;18.650;2024-03-02T15:10:13;19.70;;;9.30;;
47483;SDS011;54076;50.322;18.650;2024-03-02T15:15:14;19.50;;;9.40;;
47483;SDS011;54076;50.322;18.650;2024-03-02T15:20:15;20.00;;;10.80;;
47483;SDS011;54076;50.322;18.650;2024-03-02T15:25:16;19.10;;;10.30;;
47483;SDS011;54076;50.322;18.650;2024-03-02T15:30:17;18.00;;;9.70;;
47483;SDS011;54076;50.322;18.650;2024-03-02T15:35:18;17.10;;;8.50;;
47483;SDS011;54076;50.322;18.650;2024-03-02T15:40:19;18.70;;;9.00;;
47483;SDS011;54076;50.322;18.650;2024-03-02T15:45:20;24.10;;;12.50;;
47483;SDS011;54076;50.322;18.650;2024-03-02T15:50:21;17.20;;;8.50;;
47483;SDS011;54076;50.322;18.650;2024-03-02T15:55:22;19.00;;;8.40;;
47483;SDS011;54076;50.322;18.650;2024-03-02T16:00:23;16.80;;;7.50;;
47483;SDS011;54076;50.322;18.650;2024-03-02T16:05:23;18.00;;;8.20;;
47483;SDS011;54076;50.322;18.650;2024-03-02T16:10:24;16.60;;;8.80;;
47483;SDS011;54076;50.322;18.650;2024-03-02T16:15:28;20.80;;;9.60;;
47483;SDS011;54076;50.322;18.650;2024-03-02T16:20:29;22.10;;;11.70;;
47483;SDS011;54076;50.322;18.650;2024-03-02T16:25:30;23.00;;;11.50;;
47483;SDS011;54076;50.322;18.650;2024-03-02T16:30:31;27.30;;;12.50;;
47483;SDS011;54076;50.322;18.650;2024-03-02T16:35:32;27.10;;;13.80;;
47483;SDS011;54076;50.322;18.650;2024-03-02T16:40:33;30.00;;;14.50;;
47483;SDS011;54076;50.322;18.650;2024-03-02T16:45:34;31.50;;;14.80;;
47483;SDS011;54076;50.322;18.650;2024-03-02T16:50:35;33.10;;;14.60;;
47483;SDS011;54076;50.322;18.650;2024-03-02T16:55:36;29.80;;;14.80;;
47483;SDS011;54076;50.322;18.650;2024-03-02T17:00:37;32.50;;;15.20;;
47483;SDS011;54076;50.322;18.650;2024-03-02T17:05:38;32.10;;;16.60;;
47483;SDS011;54076;50.322;18.650;2024-03-02T17:10:39;30.00;;;16.30;;
47483;SDS011;54076;50.322;18.650;2024-03-02T17:15:40;31.90;;;16.00;;
47483;SDS011;54076;50.322;18.650;2024-03-02T17:20:41;31.80;;;16.70;;
47483;SDS011;54076;50.322;18.650;2024-03-02T17:25:42;34.80;;;17.30;;
47483;SDS011;54076;50.322;18.650;2024-03-02T17:30:44;33.40;;;16.80;;
47483;SDS011;54076;50.322;18.650;2024-03-02T17:35:44;32.40;;;16.70;;
47483;SDS011;54076;50.322;18.650;2024-03-02T17:40:48;36.50;;;17.90;;
47483;SDS011;54076;50.322;18.650;2024-03-02T17:45:48;35.40;;;17.10;;
47483;SDS011;54076;50.322;18.650;2024-03-02T17:50:49;39.90;;;20.30;;
47483;SDS011;54076;50.322;18.650;2024-03-02T17:55:50;45.50;;;21.80;;
47483;SDS011;54076;50.322;18.650;2024-03-02T18:00:51;44.20;;;21.40;;
47483;SDS011;54076;50.322;18.650;2024-03-02T18:05:52;44.60;;;21.30;;
47483;SDS011;54076;50.322;18.650;2024-03-02T18:10:53;45.50;;;23.30;;
47483;SDS011;54076;50.322;18.650;2024-03-02T18:15:54;51.00;;;23.50;;
47483;SDS011;54076;50.322;18.650;2024-03-02T18:20:56;70.00;;;32.00;;
47483;SDS011;54076;50.322;18.650;2024-03-02T18:25:57;52.10;;;25.70;;
47483;SDS011;54076;50.322;18.650;2024-03-02T18:30:58;61.80;;;27.80;;
47483;SDS011;54076;50.322;18.650;2024-03-02T18:35:59;55.90;;;26.70;;
47483;SDS011;54076;50.322;18.650;2024-03-02T18:41:00;54.80;;;27.60;;
47483;SDS011;54076;50.322;18.650;2024-03-02T18:46:01;63.90;;;30.90;;
47483;SDS011;54076;50.322;18.650;2024-03-02T18:51:06;64.80;;;31.40;;
47483;SDS011;54076;50.322;18.650;2024-03-02T18:56:09;66.40;;;32.30;;
47483;SDS011;54076;50.322;18.650;2024-03-02T19:01:11;73.50;;;35.30;;
47483;SDS011;54076;50.322;18.650;2024-03-02T19:06:15;73.50;;;35.10;;
47483;SDS011;54076;50.322;18.650;2024-03-02T19:11:17;81.40;;;35.80;;
47483;SDS011;54076;50.322;18.650;2024-03-02T19:16:19;77.60;;;35.80;;
47483;SDS011;54076;50.322;18.650;2024-03-02T19:21:20;74.90;;;35.80;;
47483;SDS011;54076;50.322;18.650;2024-03-02T19:26:21;71.30;;;35.00;;
47483;SDS011;54076;50.322;18.650;2024-03-02T19:31:22;70.10;;;33.80;;
47483;SDS011;54076;50.322;18.650;2024-03-02T19:36:23;75.10;;;34.50;;
47483;SDS011;54076;50.322;18.650;2024-03-02T19:41:25;73.10;;;34.40;;
47483;SDS011;54076;50.322;18.650;2024-03-02T19:46:26;72.40;;;33.20;;
47483;SDS011;54076;50.322;18.650;2024-03-02T19:51:27;73.00;;;33.50;;
47483;SDS011;54076;50.322;18.650;2024-03-02T19:56:27;79.40;;;34.20;;
47483;SDS011;54076;50.322;18.650;2024-03-02T20:01:29;68.10;;;32.30;;
47483;SDS011;54076;50.322;18.650;2024-03-02T20:06:30;72.30;;;32.10;;
47483;SDS011;54076;50.322;18.650;2024-03-02T20:11:31;62.80;;;32.40;;
47483;SDS011;54076;50.322;18.650;2024-03-02T20:16:32;70.60;;;33.40;;
47483;SDS011;54076;50.322;18.650;2024-03-02T20:21:33;76.80;;;35.40;;
47483;SDS011;54076;50.322;18.650;2024-03-02T20:26:34;78.40;;;36.00;;
47483;SDS011;54076;50.322;18.650;2024-03-02T20:31:37;81.00;;;35.80;;
47483;SDS011;54076;50.322;18.650;2024-03-02T20:36:38;78.50;;;35.50;;
47483;SDS011;54076;50.322;18.650;2024-03-02T20:41:39;88.90;;;38.70;;
47483;SDS011;54076;50.322;18.650;2024-03-02T20:46:40;86.10;;;38.00;;
47483;SDS011;54076;50.322;18.650;2024-03-02T20:51:41;91.80;;;40.30;;
47483;SDS011;54076;50.322;18.650;2024-03-02T20:56:45;94.00;;;41.00;;
47483;SDS011;54076;50.322;18.650;2024-03-02T21:01:47;90.00;;;42.20;;
47483;SDS011;54076;50.322;18.650;2024-03-02T21:06:48;99.30;;;44.00;;
47483;SDS011;54076;50.322;18.650;2024-03-02T21:11:49;96.80;;;43.40;;
47483;SDS011;54076;50.322;18.650;2024-03-02T21:16:50;95.90;;;41.40;;
47483;SDS011;54076;50.322;18.650;2024-03-02T21:21:51;92.30;;;42.50;;
47483;SDS011;54076;50.322;18.650;2024-03-02T21:26:52;105.60;;;44.70;;
47483;SDS011;54076;50.322;18.650;2024-03-02T21:31:53;81.40;;;38.00;;
47483;SDS011;54076;50.322;18.650;2024-03-02T21:36:55;90.40;;;42.20;;
47483;SDS011;54076;50.322;18.650;2024-03-02T21:41:58;77.50;;;35.30;;
47483;SDS011;54076;50.322;18.650;2024-03-02T21:46:59;72.40;;;32.20;;
47483;SDS011;54076;50.322;18.650;2024-03-02T21:52:00;69.90;;;32.50;;
47483;SDS011;54076;50.322;18.650;2024-03-02T21:57:04;73.70;;;33.20;;
47483;SDS011;54076;50.322;18.650;2024-03-02T22:02:06;72.90;;;32.30;;
47483;SDS011;54076;50.322;18.650;2024-03-02T22:07:07;63.60;;;30.60;;
47483;SDS011;54076;50.322;18.650;2024-03-02T22:12:08;69.50;;;32.20;;
47483;SDS011;54076;50.322;18.650;2024-03-02T22:17:12;72.20;;;32.00;;
47483;SDS011;54076;50.322;18.650;2024-03-02T22:22:12;60.90;;;29.90;;
47483;SDS011;54076;50.322;18.650;2024-03-02T22:27:13;66.70;;;29.80;;
47483;SDS011;54076;50.322;18.650;2024-03-02T22:32:14;61.90;;;29.60;;
47483;SDS011;54076;50.322;18.650;2024-03-02T22:37:15;65.30;;;28.30;;
47483;SDS011;54076;50.322;18.650;2024-03-02T22:42:18;60.40;;;29.20;;
47483;SDS011;54076;50.322;18.650;2024-03-02T22:47:19;58.30;;;27.90;;
47483;SDS011;54076;50.322;18.650;2024-03-02T22:52:20;66.10;;;29.80;;
47483;SDS011;54076;50.322;18.650;2024-03-02T22:57:21;60.70;;;29.10;;
47483;SDS011;54076;50.322;18.650;2024-03-02T23:02:22;61.20;;;28.80;;
47483;SDS011;54076;50.322;18.650;2024-03-02T23:07:24;63.50;;;28.70;;
47483;SDS011;54076;50.322;18.650;2024-03-02T23:12:25;64.40;;;30.50;;
47483;SDS011;54076;50.322;18.650;2024-03-02T23:17:26;63.80;;;29.80;;
47483;SDS011;54076;50.322;18.650;2024-03-02T23:22:26;64.80;;;29.70;;
47483;SDS011;54076;50.322;18.650;2024-03-02T23:27:27;64.20;;;29.60;;
47483;SDS011;54076;50.322;18.650;2024-03-02T23:32:28;63.00;;;29.90;;
47483;SDS011;54076;50.322;18.650;2024-03-02T23:37:30;67.30;;;29.30;;
47483;SDS011;54076;50.322;18.650;2024-03-02T23:42:32;59.80;;;28.70;;
47483;SDS011;54076;50.322;18.650;2024-03-02T23:47:33;68.60;;;31.30;;
47483;SDS011;54076;50.322;18.650;2024-03-02T23:52:34;61.70;;;29.90;;
47483;SDS011;54076;50.322;18.650;2024-03-02T23:57:49;66.80;;;29.00;;
